Main page
METAR-TAF:

METAR-TAF

Airports :

RAF Cranwell

Cranwell, England

latitude: 53-02N, longitude: 000-30W, elevation: 67 m

Current weather observation

The report was made 49 minutes ago, at 00:50 UTC
Wind 16 kt from the West
Temperature 2°C
Humidity 93%
Pressure 971 hPa
Visibility 10 km or more

METAR: EGYD 210050Z AUTO 28016KT 9999 // BKN004/// BKN120/// 02/01 Q0971

Time: 01:39 (01:39 UTC)

Forecast

The report was made 11 hours and 55 minutes ago, at 13:44 UTC
Forecast valid from 20 at 15 UTC to 20 at 19 UTC
Wind 22 kt from the South with gusts up to 32 kt
Visibility 10 km or more
Broken clouds at a height of 1200 ft
Temporary
from 20 at 15 UTC to 20 at 19 UTC
Visibility: 5000 m
rain
Probability 30% :
Temporary
from 20 at 15 UTC to 20 at 19 UTC
Few clouds at a height of 1200 ft
Broken clouds at a height of 2500 ft

TAF: EGYD 201344Z 2015/2019 19022G32KT 9999 BKN012 TEMPO 2015/2019 5000 RA PROB30 TEMPO 2015/2019 FEW012 BKN025

Weather observations and forecasts of more than 4000 airports (METAR and TAF reports).

The available stations are represented by yellow and red dots on the map.

Hover mouse over dot to see the name of the station.

Then click to see weather observations and forecasts.

To change the map : click on the green buttons with a black cross to zoom in, on the green button with a dash to zoom out, or on the green arrows for adjacent maps.


METAR-TAF: